Time;durP1;ratioP1;P1;durP2;ratioP2;P2;SDS_P1;SDS_P2;PMS_P1;PMS_P2;Temp;Humidity;BMP_temperature;BMP_pressure;BME280_temperature;BME280_humidity;BME280_pressure;Samples;Min_cycle;Max_cycle;Signal;HPM_P1;HPM_P2
2021/12/04 00:01:16;;;;;;;;;4.33;4.33;;;;;;;;5043838;28;45357;-68
2021/12/04 00:03:41;;;;;;;;;4.00;4.00;;;;;;;;5042964;28;45437;-68
2021/12/04 00:06:13;;;;;;;;;3.00;3.00;;;;;;;;5048322;28;45420;-68
2021/12/04 00:08:43;;;;;;;;;2.33;2.33;;;;;;;;5043841;28;45428;-68
2021/12/04 00:11:08;;;;;;;;;2.33;2.00;;;;;;;;5046019;28;45534;-68
2021/12/04 00:13:33;;;;;;;;;1.00;1.00;;;;;;;;5045568;28;45371;-68
2021/12/04 00:15:58;;;;;;;;;2.00;1.00;;;;;;;;5046695;28;45375;-68
2021/12/04 00:18:24;;;;;;;;;1.00;0.33;;;;;;;;5046704;28;46100;-68
2021/12/04 00:20:49;;;;;;;;;0.00;0.00;;;;;;;;5048172;28;45223;-68
2021/12/04 00:23:14;;;;;;;;;0.00;0.00;;;;;;;;5036897;28;45484;-68
2021/12/04 00:25:39;;;;;;;;;0.00;0.00;;;;;;;;5048428;28;45481;-68
2021/12/04 00:28:05;;;;;;;;;0.00;0.00;;;;;;;;5045738;28;45326;-68
2021/12/04 00:30:30;;;;;;;;;0.00;0.00;;;;;;;;5040739;28;45392;-68
2021/12/04 00:33:20;;;;;;;;;0.00;0.00;;;;;;;;5047411;28;45454;-68
2021/12/04 00:35:46;;;;;;;;;0.00;0.00;;;;;;;;5044143;28;46220;-68
2021/12/04 00:51:37;;;;;;;;;0.00;0.00;;;;;;;;5042166;28;45350;-68
2021/12/04 00:54:05;;;;;;;;;0.00;0.00;;;;;;;;5042111;28;45188;-70
2021/12/04 00:56:30;;;;;;;;;0.00;0.00;;;;;;;;5048561;28;45366;-68
2021/12/04 00:58:55;;;;;;;;;1.00;0.00;;;;;;;;5040873;28;46306;-68
2021/12/04 01:01:21;;;;;;;;;0.00;0.00;;;;;;;;5057118;28;45454;-68
2021/12/04 01:03:46;;;;;;;;;0.00;0.00;;;;;;;;5046998;28;45546;-68
2021/12/04 01:06:11;;;;;;;;;0.00;0.00;;;;;;;;5044387;28;46639;-67
2021/12/04 01:08:36;;;;;;;;;0.00;0.00;;;;;;;;5039381;28;45322;-67
2021/12/04 01:11:02;;;;;;;;;0.00;0.00;;;;;;;;5043922;28;45386;-68
2021/12/04 01:13:28;;;;;;;;;1.33;0.00;;;;;;;;5041470;28;45604;-68
2021/12/04 01:15:53;;;;;;;;;0.00;0.00;;;;;;;;5043961;28;46591;-68
2021/12/04 01:18:19;;;;;;;;;0.00;0.00;;;;;;;;5038813;28;45316;-68
2021/12/04 01:20:44;;;;;;;;;0.00;0.00;;;;;;;;5044034;28;45189;-68
2021/12/04 01:23:10;;;;;;;;;0.00;0.00;;;;;;;;5039513;28;45656;-68
2021/12/04 01:25:37;;;;;;;;;0.00;0.00;;;;;;;;5037215;28;46403;-68
2021/12/04 01:28:04;;;;;;;;;0.00;0.00;;;;;;;;5037832;28;45251;-68
2021/12/04 01:30:29;;;;;;;;;0.00;0.00;;;;;;;;5037420;28;45366;-68
2021/12/04 01:32:54;;;;;;;;;0.00;0.00;;;;;;;;5045162;28;45333;-67
2021/12/04 01:35:20;;;;;;;;;0.00;0.00;;;;;;;;5037310;28;46390;-68
2021/12/04 01:37:45;;;;;;;;;0.00;0.00;;;;;;;;5043155;28;45441;-68
2021/12/04 01:40:10;;;;;;;;;0.00;0.00;;;;;;;;5038734;28;45410;-68
2021/12/04 01:42:36;;;;;;;;;0.00;0.00;;;;;;;;5042048;28;45481;-68
2021/12/04 01:45:04;;;;;;;;;0.00;0.00;;;;;;;;5041653;28;46264;-68
2021/12/04 01:47:29;;;;;;;;;0.00;0.00;;;;;;;;5060025;28;45332;-68
2021/12/04 01:49:55;;;;;;;;;0.00;0.00;;;;;;;;5045093;28;45232;-68
2021/12/04 01:52:21;;;;;;;;;0.00;0.00;;;;;;;;5042937;28;45415;-69
2021/12/04 01:54:47;;;;;;;;;0.00;0.00;;;;;;;;5039642;28;45429;-69
2021/12/04 01:57:17;;;;;;;;;0.00;0.00;;;;;;;;5041068;28;45721;-68
2021/12/04 01:59:43;;;;;;;;;0.00;0.00;;;;;;;;5043172;28;45377;-67
2021/12/04 02:02:08;;;;;;;;;0.00;0.00;;;;;;;;5043326;28;45320;-69
2021/12/04 02:04:33;;;;;;;;;0.00;0.00;;;;;;;;5039285;28;45603;-69
2021/12/04 02:07:03;;;;;;;;;0.00;0.00;;;;;;;;5041986;28;45255;-69
2021/12/04 02:09:28;;;;;;;;;1.00;0.00;;;;;;;;5038670;28;45438;-69
2021/12/04 02:11:53;;;;;;;;;0.00;0.00;;;;;;;;5043851;28;45464;-69
2021/12/04 02:14:18;;;;;;;;;0.00;0.00;;;;;;;;5036700;28;46518;-69
2021/12/04 02:16:45;;;;;;;;;0.00;0.00;;;;;;;;5041202;28;45398;-68
2021/12/04 02:19:10;;;;;;;;;0.00;0.00;;;;;;;;5041030;28;45439;-68
2021/12/04 02:21:35;;;;;;;;;0.00;0.00;;;;;;;;5043268;28;45344;-68
2021/12/04 02:24:00;;;;;;;;;0.00;0.00;;;;;;;;5040442;28;45540;-69
2021/12/04 02:26:26;;;;;;;;;0.00;0.00;;;;;;;;5042645;28;45365;-69
2021/12/04 02:28:51;;;;;;;;;0.00;0.00;;;;;;;;5035020;28;45621;-68
2021/12/04 02:31:17;;;;;;;;;0.00;0.00;;;;;;;;5043209;28;45637;-68
2021/12/04 02:33:42;;;;;;;;;1.00;0.00;;;;;;;;5034558;28;47363;-69
2021/12/04 02:36:07;;;;;;;;;0.00;0.00;;;;;;;;5042597;28;45362;-69
2021/12/04 02:38:33;;;;;;;;;0.00;0.00;;;;;;;;5038148;28;45319;-69
2021/12/04 02:41:02;;;;;;;;;1.67;0.00;;;;;;;;5041555;28;45643;-69
2021/12/04 02:43:30;;;;;;;;;0.00;0.00;;;;;;;;5037466;28;45672;-69
2021/12/04 02:45:56;;;;;;;;;0.00;0.00;;;;;;;;5048022;28;45586;-68
2021/12/04 02:48:22;;;;;;;;;0.00;0.00;;;;;;;;5044351;28;45390;-68
2021/12/04 02:50:47;;;;;;;;;0.00;0.00;;;;;;;;5041839;28;45346;-69
2021/12/04 02:53:12;;;;;;;;;0.00;0.00;;;;;;;;5035528;28;48125;-68
2021/12/04 02:55:38;;;;;;;;;0.00;0.00;;;;;;;;5043242;28;45806;-69
2021/12/04 02:58:04;;;;;;;;;0.00;0.00;;;;;;;;5037073;28;45450;-68
2021/12/04 03:00:29;;;;;;;;;1.00;0.00;;;;;;;;5043611;28;45258;-68
2021/12/04 03:02:56;;;;;;;;;0.00;0.00;;;;;;;;5037779;28;46328;-69
2021/12/04 03:05:24;;;;;;;;;0.00;0.00;;;;;;;;5042399;28;45226;-68
2021/12/04 03:07:50;;;;;;;;;0.00;0.00;;;;;;;;5038212;28;45475;-68
2021/12/04 03:10:15;;;;;;;;;0.00;0.00;;;;;;;;5038238;28;45385;-68
2021/12/04 03:12:41;;;;;;;;;0.00;0.00;;;;;;;;5038303;28;45462;-68
2021/12/04 03:15:06;;;;;;;;;0.00;0.00;;;;;;;;5039599;28;45423;-67
2021/12/04 03:17:32;;;;;;;;;0.00;0.00;;;;;;;;5039467;28;45557;-67
2021/12/04 03:19:57;;;;;;;;;0.00;0.00;;;;;;;;5040717;28;45302;-67
2021/12/04 03:22:23;;;;;;;;;0.00;0.00;;;;;;;;5038070;28;45328;-67
2021/12/04 03:24:48;;;;;;;;;0.00;0.00;;;;;;;;5038982;28;45662;-67
2021/12/04 03:27:16;;;;;;;;;0.00;0.00;;;;;;;;5039130;28;45382;-67
2021/12/04 03:29:46;;;;;;;;;1.00;0.00;;;;;;;;5039638;28;45319;-67
2021/12/04 03:42:58;;;;;;;;;0.00;0.00;;;;;;;;5040864;28;45481;-67
2021/12/04 03:45:24;;;;;;;;;0.00;0.00;;;;;;;;5038712;28;45367;-67
2021/12/04 03:47:51;;;;;;;;;2.00;1.00;;;;;;;;5038200;28;45513;-67
2021/12/04 03:50:17;;;;;;;;;0.00;0.00;;;;;;;;5041929;28;45350;-67
2021/12/04 03:52:42;;;;;;;;;0.00;0.00;;;;;;;;5039428;28;45438;-67
2021/12/04 03:55:08;;;;;;;;;0.00;0.00;;;;;;;;5040726;28;45374;-67
2021/12/04 03:57:33;;;;;;;;;1.33;0.33;;;;;;;;5038975;28;45764;-68
2021/12/04 03:59:59;;;;;;;;;0.00;0.00;;;;;;;;5039423;28;45248;-68
2021/12/04 04:02:25;;;;;;;;;0.00;0.00;;;;;;;;5043652;28;46891;-68
2021/12/04 04:04:50;;;;;;;;;1.67;1.00;;;;;;;;5038139;28;45210;-68
2021/12/04 04:07:16;;;;;;;;;0.00;0.00;;;;;;;;5040652;28;45197;-67
2021/12/04 04:09:41;;;;;;;;;0.00;0.00;;;;;;;;5036616;28;45497;-67
2021/12/04 04:12:07;;;;;;;;;1.00;0.00;;;;;;;;5040024;28;47207;-67
2021/12/04 04:14:32;;;;;;;;;0.00;0.00;;;;;;;;5036040;28;45274;-68
2021/12/04 04:16:58;;;;;;;;;0.00;0.00;;;;;;;;5042800;28;45277;-67
2021/12/04 04:19:23;;;;;;;;;0.00;0.00;;;;;;;;5039609;28;45548;-68
2021/12/04 04:21:53;;;;;;;;;0.00;0.00;;;;;;;;5040770;28;47763;-67
2021/12/04 04:24:18;;;;;;;;;0.00;0.00;;;;;;;;5031233;28;45496;-67
2021/12/04 04:26:44;;;;;;;;;0.00;0.00;;;;;;;;5042652;28;45413;-69
2021/12/04 04:29:10;;;;;;;;;1.00;0.00;;;;;;;;5033157;28;45243;-67
2021/12/04 04:31:35;;;;;;;;;1.00;0.00;;;;;;;;5042299;28;46247;-68
2021/12/04 04:34:07;;;;;;;;;0.00;0.00;;;;;;;;5031613;28;45415;-67
2021/12/04 04:39:41;;;;;;;;;0.00;0.00;;;;;;;;5037709;28;46007;-67
2021/12/04 05:13:01;;;;;;;;;0.00;0.00;;;;;;;;5032197;28;45306;-68
2021/12/04 05:15:01;;;;;;;;;0.00;0.00;;;;;;;;5029517;28;45588;-68
2021/12/04 05:17:30;;;;;;;;;0.00;0.00;;;;;;;;5050251;28;45428;-67
2021/12/04 05:19:55;;;;;;;;;1.00;0.00;;;;;;;;5040489;28;45255;-67
2021/12/04 05:22:21;;;;;;;;;0.33;0.00;;;;;;;;5042994;28;45427;-67
2021/12/04 05:24:47;;;;;;;;;1.00;0.00;;;;;;;;5036176;28;45413;-67
2021/12/04 05:27:12;;;;;;;;;0.00;0.00;;;;;;;;5032578;28;45388;-67
2021/12/04 05:29:38;;;;;;;;;0.00;0.00;;;;;;;;5037107;28;45484;-67
2021/12/04 05:32:06;;;;;;;;;0.00;0.00;;;;;;;;5043349;28;45556;-68
2021/12/04 05:34:32;;;;;;;;;0.00;0.00;;;;;;;;5040131;28;46159;-68
2021/12/04 05:36:58;;;;;;;;;0.00;0.00;;;;;;;;5044657;28;45354;-67
2021/12/04 05:39:23;;;;;;;;;0.00;0.00;;;;;;;;5039339;28;45386;-67
2021/12/04 05:41:48;;;;;;;;;0.00;0.00;;;;;;;;5045537;28;45497;-67
2021/12/04 05:44:15;;;;;;;;;0.00;0.00;;;;;;;;5037904;28;45499;-68
2021/12/04 05:46:45;;;;;;;;;0.00;0.00;;;;;;;;5044873;28;45170;-68
2021/12/04 05:56:43;;;;;;;;;1.00;0.00;;;;;;;;5044351;28;45320;-68
2021/12/04 05:59:09;;;;;;;;;0.00;0.00;;;;;;;;5038139;28;45401;-68
2021/12/04 06:01:34;;;;;;;;;0.00;0.00;;;;;;;;5044895;28;45268;-68
2021/12/04 06:03:59;;;;;;;;;0.00;0.00;;;;;;;;5033567;28;47091;-67
2021/12/04 06:06:25;;;;;;;;;0.00;0.00;;;;;;;;5041312;28;45344;-67
2021/12/04 06:08:50;;;;;;;;;0.00;0.00;;;;;;;;5039009;28;45827;-67
2021/12/04 06:11:15;;;;;;;;;0.00;0.00;;;;;;;;5041533;28;45690;-67
2021/12/04 06:13:40;;;;;;;;;0.00;0.00;;;;;;;;5040237;28;45567;-67
2021/12/04 06:16:06;;;;;;;;;0.00;0.00;;;;;;;;5041989;28;45401;-68
2021/12/04 06:18:32;;;;;;;;;0.00;0.00;;;;;;;;5037330;28;45446;-67
2021/12/04 06:23:42;;;;;;;;;2.00;0.00;;;;;;;;5035982;28;45435;-68
2021/12/04 06:26:07;;;;;;;;;0.00;0.00;;;;;;;;5040537;28;45362;-68
2021/12/04 06:28:33;;;;;;;;;0.00;0.00;;;;;;;;5037924;28;45401;-68
2021/12/04 06:30:59;;;;;;;;;0.00;0.00;;;;;;;;5039416;28;45269;-67
2021/12/04 06:33:25;;;;;;;;;0.00;0.00;;;;;;;;5037756;28;46070;-67
2021/12/04 06:35:52;;;;;;;;;0.00;0.00;;;;;;;;5044143;28;45346;-68
2021/12/04 06:38:18;;;;;;;;;0.00;0.00;;;;;;;;5036106;28;45448;-68
2021/12/04 06:40:43;;;;;;;;;0.00;0.00;;;;;;;;5040909;28;45259;-68
2021/12/04 06:43:09;;;;;;;;;0.00;0.00;;;;;;;;5035714;28;47578;-68
2021/12/04 06:45:37;;;;;;;;;0.00;0.00;;;;;;;;5044739;28;45394;-68
2021/12/04 06:48:10;;;;;;;;;0.00;0.00;;;;;;;;5038923;28;45422;-68
2021/12/04 06:50:49;;;;;;;;;4.00;3.00;;;;;;;;5040763;28;45388;-68
2021/12/04 06:54:02;;;;;;;;;1.33;0.00;;;;;;;;5034760;28;46402;-68
2021/12/04 06:56:02;;;;;;;;;0.00;0.00;;;;;;;;5032417;28;45787;-68
2021/12/04 06:58:29;;;;;;;;;0.00;0.00;;;;;;;;5036949;28;45440;-68
2021/12/04 07:00:54;;;;;;;;;0.67;0.00;;;;;;;;5043943;28;45321;-68
2021/12/04 07:03:19;;;;;;;;;0.00;0.00;;;;;;;;5035358;28;47327;-69
2021/12/04 07:05:45;;;;;;;;;0.00;0.00;;;;;;;;5043246;28;45350;-69
2021/12/04 07:08:10;;;;;;;;;0.00;0.00;;;;;;;;5036588;28;45389;-69
2021/12/04 07:10:36;;;;;;;;;0.00;0.00;;;;;;;;5040300;28;45333;-68
2021/12/04 07:13:02;;;;;;;;;0.00;0.00;;;;;;;;5038370;28;47108;-69
2021/12/04 07:15:30;;;;;;;;;0.00;0.00;;;;;;;;5040982;28;45390;-69
2021/12/04 07:17:56;;;;;;;;;0.33;0.00;;;;;;;;5040681;28;45303;-69
2021/12/04 07:20:21;;;;;;;;;2.00;1.00;;;;;;;;5041240;28;46182;-69
2021/12/04 07:22:47;;;;;;;;;0.67;0.00;;;;;;;;5040384;28;45332;-70
2021/12/04 07:25:12;;;;;;;;;2.00;0.00;;;;;;;;5034389;28;45303;-69
2021/12/04 07:27:37;;;;;;;;;0.00;0.00;;;;;;;;5041009;28;45605;-69
2021/12/04 07:30:06;;;;;;;;;0.33;0.33;;;;;;;;5036099;28;45432;-69
2021/12/04 07:32:32;;;;;;;;;1.00;1.00;;;;;;;;5041485;28;46141;-68
2021/12/04 07:34:57;;;;;;;;;1.00;1.00;;;;;;;;5041236;28;45311;-69
2021/12/04 07:37:22;;;;;;;;;0.00;0.00;;;;;;;;5040749;28;45614;-69
2021/12/04 07:39:48;;;;;;;;;0.00;0.00;;;;;;;;5035788;28;45441;-69
2021/12/04 07:42:13;;;;;;;;;1.00;1.00;;;;;;;;5040939;28;45741;-69
2021/12/04 07:44:38;;;;;;;;;2.00;2.00;;;;;;;;5037445;28;45430;-69
2021/12/04 07:47:03;;;;;;;;;0.00;0.00;;;;;;;;5040814;28;45277;-69
2021/12/04 07:49:29;;;;;;;;;0.00;0.00;;;;;;;;5034478;28;45398;-69
2021/12/04 07:51:54;;;;;;;;;0.00;0.00;;;;;;;;5042378;28;45409;-71
2021/12/04 07:54:19;;;;;;;;;0.00;0.00;;;;;;;;5036768;28;45438;-69
2021/12/04 07:56:45;;;;;;;;;1.00;1.00;;;;;;;;5042325;28;45141;-68
2021/12/04 07:59:10;;;;;;;;;0.00;0.00;;;;;;;;5036155;28;45492;-68
2021/12/04 08:01:35;;;;;;;;;0.00;0.00;;;;;;;;5040693;28;47022;-68
2021/12/04 08:04:00;;;;;;;;;0.00;0.00;;;;;;;;5047359;28;45389;-69
2021/12/04 08:06:26;;;;;;;;;2.00;2.00;;;;;;;;5042857;28;45516;-68
2021/12/04 08:08:58;;;;;;;;;0.00;0.00;;;;;;;;5037076;28;45224;-69
2021/12/04 08:11:24;;;;;;;;;0.67;0.67;;;;;;;;5040781;28;47408;-68
2021/12/04 08:13:49;;;;;;;;;0.00;0.00;;;;;;;;5038129;28;45409;-68
2021/12/04 08:16:15;;;;;;;;;0.00;0.00;;;;;;;;5042266;28;45416;-68
2021/12/04 08:18:40;;;;;;;;;0.00;0.00;;;;;;;;5042079;28;45367;-68
2021/12/04 08:21:05;;;;;;;;;0.00;0.00;;;;;;;;5043326;28;46344;-68
2021/12/04 08:23:30;;;;;;;;;0.00;0.00;;;;;;;;5038761;28;45697;-68
2021/12/04 08:25:56;;;;;;;;;0.00;0.00;;;;;;;;5028007;28;45294;-68
2021/12/04 08:28:22;;;;;;;;;0.00;0.00;;;;;;;;5041788;28;45417;-68
2021/12/04 08:30:47;;;;;;;;;0.00;0.00;;;;;;;;5040215;28;45509;-68
2021/12/04 08:33:13;;;;;;;;;0.33;0.33;;;;;;;;5039560;28;45377;-69
2021/12/04 08:35:40;;;;;;;;;3.00;3.00;;;;;;;;5045073;28;45236;-66
2021/12/04 08:38:06;;;;;;;;;0.00;0.00;;;;;;;;5039307;28;45421;-68
2021/12/04 08:40:32;;;;;;;;;0.00;0.00;;;;;;;;5040090;28;45371;-67
2021/12/04 08:42:57;;;;;;;;;0.00;0.00;;;;;;;;5028822;28;45360;-68
2021/12/04 08:45:22;;;;;;;;;0.00;0.00;;;;;;;;5044118;28;46632;-68
2021/12/04 08:47:48;;;;;;;;;0.00;0.00;;;;;;;;5042080;28;45434;-68
2021/12/04 08:50:15;;;;;;;;;0.67;0.00;;;;;;;;5040882;28;46331;-68
2021/12/04 08:52:40;;;;;;;;;0.00;0.00;;;;;;;;5042335;28;45336;-68
2021/12/04 08:55:06;;;;;;;;;0.00;0.00;;;;;;;;5041577;28;45259;-68
2021/12/04 08:57:31;;;;;;;;;0.00;0.00;;;;;;;;5041821;28;45401;-68
2021/12/04 08:59:56;;;;;;;;;1.33;1.00;;;;;;;;5039429;28;47297;-68
2021/12/04 09:02:22;;;;;;;;;1.33;1.00;;;;;;;;5032915;28;44746;-68
2021/12/04 09:04:47;;;;;;;;;0.00;0.00;;;;;;;;5041351;28;45423;-68
2021/12/04 09:07:13;;;;;;;;;0.00;0.00;;;;;;;;5038940;28;45635;-68
2021/12/04 09:09:38;;;;;;;;;0.00;0.00;;;;;;;;5038046;28;46400;-68
2021/12/04 09:12:06;;;;;;;;;0.00;0.00;;;;;;;;5044337;28;45713;-68
2021/12/04 09:14:32;;;;;;;;;0.67;0.00;;;;;;;;5039688;28;45362;-68
2021/12/04 09:16:59;;;;;;;;;0.00;0.00;;;;;;;;5030863;28;45474;-68
2021/12/04 09:19:24;;;;;;;;;1.00;1.00;;;;;;;;5038243;28;45658;-68
2021/12/04 09:21:50;;;;;;;;;3.00;0.00;;;;;;;;5034802;28;45307;-69
2021/12/04 09:24:21;;;;;;;;;0.00;0.00;;;;;;;;5031813;28;45295;-71
2021/12/04 09:35:05;;;;;;;;;1.00;1.00;;;;;;;;5034617;28;45424;-68
2021/12/04 09:59:51;;;;;;;;;2.00;0.00;;;;;;;;5016602;28;45812;-68
2021/12/04 10:18:23;;;;;;;;;1.67;1.67;;;;;;;;5038485;28;45429;-69
2021/12/04 10:34:03;;;;;;;;;2.00;2.00;;;;;;;;5035858;28;45694;-68
2021/12/04 10:36:36;;;;;;;;;0.33;0.33;;;;;;;;5040054;28;45761;-67
2021/12/04 10:39:04;;;;;;;;;3.00;0.00;;;;;;;;5037555;28;45485;-68
2021/12/04 10:41:33;;;;;;;;;1.00;1.00;;;;;;;;5040868;28;45600;-68
2021/12/04 10:44:11;;;;;;;;;2.00;2.00;;;;;;;;5035554;28;45555;-69
2021/12/04 10:46:36;;;;;;;;;1.00;0.33;;;;;;;;5040598;28;45326;-69
2021/12/04 10:49:13;;;;;;;;;1.00;1.00;;;;;;;;5035737;28;46071;-68
2021/12/04 10:51:45;;;;;;;;;0.33;0.00;;;;;;;;5039991;28;45585;-67
2021/12/04 10:54:24;;;;;;;;;1.67;1.33;;;;;;;;5030694;28;47402;-70
2021/12/04 10:57:03;;;;;;;;;1.00;0.00;;;;;;;;5031173;28;45393;-69
2021/12/04 10:59:44;;;;;;;;;0.67;0.67;;;;;;;;5032091;28;45656;-68
2021/12/04 11:02:20;;;;;;;;;1.00;1.00;;;;;;;;5042364;28;45314;-68
2021/12/04 11:05:37;;;;;;;;;1.67;0.00;;;;;;;;5040153;28;46674;-68
2021/12/04 11:18:34;;;;;;;;;0.00;0.00;;;;;;;;5040899;28;45540;-68
2021/12/04 11:42:45;;;;;;;;;3.00;3.00;;;;;;;;5040013;28;45353;-70
2021/12/04 11:45:18;;;;;;;;;1.00;1.00;;;;;;;;5039327;28;45365;-69
2021/12/04 11:47:45;;;;;;;;;3.00;3.00;;;;;;;;5039268;28;46742;-70
2021/12/04 11:50:15;;;;;;;;;0.00;0.00;;;;;;;;5037396;28;45217;-70
2021/12/04 11:52:46;;;;;;;;;2.00;0.67;;;;;;;;5040945;28;45535;-70
2021/12/04 11:55:11;;;;;;;;;3.00;2.00;;;;;;;;5039258;28;45307;-69
2021/12/04 11:57:37;;;;;;;;;2.00;2.00;;;;;;;;5038747;28;45538;-69
2021/12/04 12:00:21;;;;;;;;;3.33;3.33;;;;;;;;5029450;28;45311;-71
2021/12/04 12:02:47;;;;;;;;;2.00;2.00;;;;;;;;5037971;28;45491;-72
2021/12/04 12:05:21;;;;;;;;;2.33;1.00;;;;;;;;5035189;28;45599;-72
2021/12/04 12:07:54;;;;;;;;;4.00;2.00;;;;;;;;5042032;28;45366;-74
2021/12/04 12:10:20;;;;;;;;;5.33;2.00;;;;;;;;5039968;28;45374;-69
2021/12/04 12:12:47;;;;;;;;;2.00;2.00;;;;;;;;5038777;28;45255;-71
2021/12/04 12:15:21;;;;;;;;;9.00;3.00;;;;;;;;5034883;28;45424;-72
2021/12/04 12:17:46;;;;;;;;;7.00;5.33;;;;;;;;5037166;28;47227;-74
2021/12/04 12:20:18;;;;;;;;;7.00;4.00;;;;;;;;5037428;28;45369;-76
2021/12/04 12:22:54;;;;;;;;;5.00;3.00;;;;;;;;5035541;28;45453;-74
2021/12/04 12:25:24;;;;;;;;;6.33;3.00;;;;;;;;5032247;28;45391;-75
2021/12/04 12:31:47;;;;;;;;;5.33;4.00;;;;;;;;5042505;28;47236;-70
2021/12/04 12:33:37;;;;;;;;;3.00;2.00;;;;;;;;5041897;28;45549;-69
2021/12/04 12:36:10;;;;;;;;;2.33;2.33;;;;;;;;5036875;28;45224;-67
2021/12/04 12:39:04;;;;;;;;;4.33;4.33;;;;;;;;5043362;28;46299;-69
2021/12/04 12:41:42;;;;;;;;;2.00;2.00;;;;;;;;5040721;28;45589;-72
2021/12/04 12:44:17;;;;;;;;;4.00;4.00;;;;;;;;5039450;28;45394;-69
2021/12/04 12:46:43;;;;;;;;;4.67;3.00;;;;;;;;5031295;28;45318;-69
2021/12/04 12:49:18;;;;;;;;;6.00;5.00;;;;;;;;5032905;28;46081;-70
2021/12/04 12:51:44;;;;;;;;;8.67;5.33;;;;;;;;5031683;28;45441;-70
2021/12/04 12:54:09;;;;;;;;;4.00;4.00;;;;;;;;5036920;28;45461;-69
2021/12/04 12:56:37;;;;;;;;;3.33;2.67;;;;;;;;5045919;28;45599;-70
2021/12/04 12:59:08;;;;;;;;;7.00;4.00;;;;;;;;5038507;28;45493;-68
2021/12/04 13:12:51;;;;;;;;;7.00;5.00;;;;;;;;5041559;28;45567;-72
2021/12/04 13:15:33;;;;;;;;;5.67;5.67;;;;;;;;5049778;28;45527;-72
2021/12/04 13:18:22;;;;;;;;;2.00;2.00;;;;;;;;5051359;28;45327;-72
2021/12/04 13:20:48;;;;;;;;;4.00;3.00;;;;;;;;5035557;28;48048;-72
2021/12/04 13:23:15;;;;;;;;;5.00;5.00;;;;;;;;5052876;28;45659;-73
2021/12/04 13:25:51;;;;;;;;;7.00;4.00;;;;;;;;5043109;28;45436;-73
2021/12/04 13:30:44;;;;;;;;;2.00;2.00;;;;;;;;5040636;28;46305;-72
2021/12/04 13:33:10;;;;;;;;;3.00;3.00;;;;;;;;5040126;28;46159;-73
2021/12/04 13:35:35;;;;;;;;;3.00;3.00;;;;;;;;5033416;28;45447;-72
2021/12/04 13:38:03;;;;;;;;;2.00;2.00;;;;;;;;5038357;28;45490;-73
2021/12/04 13:40:28;;;;;;;;;3.00;3.00;;;;;;;;5041556;28;47721;-73
2021/12/04 13:42:53;;;;;;;;;5.67;4.00;;;;;;;;5039987;28;45473;-73
2021/12/04 13:45:19;;;;;;;;;3.00;3.00;;;;;;;;5030356;28;45217;-72
2021/12/04 13:47:51;;;;;;;;;5.33;4.00;;;;;;;;5038588;28;45548;-73
2021/12/04 13:50:34;;;;;;;;;2.67;2.67;;;;;;;;5038860;28;48117;-70
2021/12/04 13:53:02;;;;;;;;;3.33;3.33;;;;;;;;5038655;28;45333;-68
2021/12/04 13:55:28;;;;;;;;;6.00;3.00;;;;;;;;5042590;28;45449;-71
2021/12/04 13:57:56;;;;;;;;;4.67;2.00;;;;;;;;5040194;28;45509;-72
2021/12/04 14:00:21;;;;;;;;;5.67;5.00;;;;;;;;5039991;28;47036;-71
2021/12/04 14:02:46;;;;;;;;;9.00;3.33;;;;;;;;5040301;28;45377;-71
2021/12/04 14:05:21;;;;;;;;;3.33;3.33;;;;;;;;5041186;28;45675;-68
2021/12/04 14:08:05;;;;;;;;;3.33;2.33;;;;;;;;5041086;28;45446;-72
2021/12/04 14:10:34;;;;;;;;;1.67;1.67;;;;;;;;5040197;28;45399;-71
2021/12/04 14:13:02;;;;;;;;;3.33;2.00;;;;;;;;5039398;28;45504;-71
2021/12/04 14:15:28;;;;;;;;;6.67;6.67;;;;;;;;5040439;28;45425;-70
2021/12/04 14:17:59;;;;;;;;;7.00;4.00;;;;;;;;5039387;28;45532;-70
2021/12/04 14:20:26;;;;;;;;;6.00;4.33;;;;;;;;5043305;28;46758;-70
2021/12/04 14:22:52;;;;;;;;;4.00;2.00;;;;;;;;5051041;28;45269;-68
2021/12/04 14:25:18;;;;;;;;;4.00;2.67;;;;;;;;5035497;28;45419;-68
2021/12/04 14:27:44;;;;;;;;;3.67;2.00;;;;;;;;5042232;28;45457;-68
2021/12/04 14:30:12;;;;;;;;;3.67;2.00;;;;;;;;5036696;28;45437;-70
2021/12/04 14:32:39;;;;;;;;;1.67;1.33;;;;;;;;5041431;28;45810;-69
2021/12/04 14:35:06;;;;;;;;;4.33;3.33;;;;;;;;5038939;28;45204;-69
2021/12/04 14:37:36;;;;;;;;;4.00;1.67;;;;;;;;5041452;28;45512;-68
2021/12/04 14:40:03;;;;;;;;;2.00;2.00;;;;;;;;5041612;28;46801;-69
2021/12/04 14:42:30;;;;;;;;;0.67;0.67;;;;;;;;5041336;28;45291;-69
2021/12/04 14:44:57;;;;;;;;;2.33;1.67;;;;;;;;5040226;28;45434;-71
2021/12/04 14:47:27;;;;;;;;;1.00;1.00;;;;;;;;5042599;28;45231;-71
2021/12/04 14:49:58;;;;;;;;;2.33;2.00;;;;;;;;5038172;28;46310;-70
2021/12/04 14:52:25;;;;;;;;;4.00;1.00;;;;;;;;5040980;28;45520;-69
2021/12/04 14:54:51;;;;;;;;;8.67;3.00;;;;;;;;5039957;28;45480;-71
2021/12/04 14:57:24;;;;;;;;;2.00;1.00;;;;;;;;5040851;28;45513;-69
2021/12/04 15:00:10;;;;;;;;;4.00;1.67;;;;;;;;5038091;28;45512;-70
2021/12/04 15:02:35;;;;;;;;;1.67;1.33;;;;;;;;5028504;28;45429;-69
2021/12/04 15:05:03;;;;;;;;;2.00;2.00;;;;;;;;5039330;28;45386;-69
2021/12/04 15:07:31;;;;;;;;;3.67;3.67;;;;;;;;5041241;28;45336;-69
2021/12/04 15:09:56;;;;;;;;;2.00;2.00;;;;;;;;5040702;28;47188;-70
2021/12/04 15:12:30;;;;;;;;;5.33;3.00;;;;;;;;5041469;28;45290;-70
2021/12/04 15:14:59;;;;;;;;;8.00;2.00;;;;;;;;5038443;28;45362;-70
2021/12/04 15:17:25;;;;;;;;;5.33;3.67;;;;;;;;5050272;28;45613;-70
2021/12/04 15:19:53;;;;;;;;;7.00;3.00;;;;;;;;5040241;28;46156;-70
2021/12/04 15:22:49;;;;;;;;;3.00;3.00;;;;;;;;5041259;28;45473;-69
2021/12/04 15:25:13;;;;;;;;;6.33;4.33;;;;;;;;5029522;28;45429;-69
2021/12/04 15:27:38;;;;;;;;;4.00;4.00;;;;;;;;5040899;28;45375;-70
2021/12/04 15:30:04;;;;;;;;;3.00;1.33;;;;;;;;5036956;28;45369;-70
2021/12/04 15:32:30;;;;;;;;;7.67;3.67;;;;;;;;5038649;28;46029;-72
2021/12/04 15:35:04;;;;;;;;;1.67;1.67;;;;;;;;5034383;28;45321;-70
2021/12/04 15:37:38;;;;;;;;;1.67;1.67;;;;;;;;5040605;28;45314;-69
2021/12/04 15:40:11;;;;;;;;;0.67;0.00;;;;;;;;5037063;28;46398;-70
2021/12/04 15:42:48;;;;;;;;;2.00;2.00;;;;;;;;5039792;28;45616;-70
2021/12/04 15:45:40;;;;;;;;;1.00;1.00;;;;;;;;5038871;28;45452;-69
2021/12/04 15:48:30;;;;;;;;;1.67;1.67;;;;;;;;5036998;28;45251;-69
2021/12/04 15:53:56;;;;;;;;;3.00;1.00;;;;;;;;5053292;28;45623;-67
2021/12/04 15:56:27;;;;;;;;;6.00;2.00;;;;;;;;5040649;28;45565;-69
2021/12/04 15:58:53;;;;;;;;;1.00;1.00;;;;;;;;5035937;28;45664;-70
2021/12/04 16:01:18;;;;;;;;;3.33;2.33;;;;;;;;5041558;28;46538;-69
2021/12/04 16:03:44;;;;;;;;;3.00;2.67;;;;;;;;5035117;28;45529;-69
2021/12/04 16:06:11;;;;;;;;;3.00;3.00;;;;;;;;5038609;28;45472;-69
2021/12/04 16:08:38;;;;;;;;;1.67;0.00;;;;;;;;5033031;28;45532;-69
2021/12/04 16:11:04;;;;;;;;;1.33;1.00;;;;;;;;5033195;28;45624;-70
2021/12/04 16:13:31;;;;;;;;;2.00;1.67;;;;;;;;5037952;28;45366;-69
2021/12/04 16:15:57;;;;;;;;;4.33;3.00;;;;;;;;5028838;28;45439;-69
2021/12/04 16:18:24;;;;;;;;;2.00;1.00;;;;;;;;5038323;28;45228;-68
2021/12/04 16:20:49;;;;;;;;;2.33;2.00;;;;;;;;5040004;28;46160;-69
2021/12/04 16:23:15;;;;;;;;;4.00;1.00;;;;;;;;5038680;28;45333;-69
2021/12/04 16:25:41;;;;;;;;;2.00;0.00;;;;;;;;5033824;28;45385;-68
2021/12/04 16:30:58;;;;;;;;;2.00;1.00;;;;;;;;5038641;28;45606;-68
2021/12/04 16:33:38;;;;;;;;;0.67;0.00;;;;;;;;5037107;28;45470;-69
2021/12/04 16:38:29;;;;;;;;;0.00;0.00;;;;;;;;5038757;28;45367;-68
2021/12/04 16:40:54;;;;;;;;;2.00;2.00;;;;;;;;5044989;28;45305;-68
2021/12/04 16:43:30;;;;;;;;;2.33;2.00;;;;;;;;5038885;28;45256;-68
2021/12/04 16:45:57;;;;;;;;;4.00;1.67;;;;;;;;5043784;28;45583;-68
2021/12/04 16:48:26;;;;;;;;;1.00;1.00;;;;;;;;5038804;28;45192;-68
2021/12/04 16:59:01;;;;;;;;;2.00;1.00;;;;;;;;5042396;28;45227;-69
2021/12/04 17:01:28;;;;;;;;;0.00;0.00;;;;;;;;5040672;28;48176;-70
2021/12/04 17:03:53;;;;;;;;;0.00;0.00;;;;;;;;5039133;28;45373;-71
2021/12/04 17:06:19;;;;;;;;;0.00;0.00;;;;;;;;5042950;28;45926;-69
2021/12/04 17:08:45;;;;;;;;;1.00;1.00;;;;;;;;5035803;28;45695;-68
2021/12/04 17:11:10;;;;;;;;;0.00;0.00;;;;;;;;5031320;28;47089;-68
2021/12/04 17:13:35;;;;;;;;;1.00;0.00;;;;;;;;5036401;28;45541;-68
2021/12/04 17:16:01;;;;;;;;;0.00;0.00;;;;;;;;5044693;28;45516;-68
2021/12/04 17:18:26;;;;;;;;;0.00;0.00;;;;;;;;5043076;28;45398;-68
2021/12/04 17:20:53;;;;;;;;;0.67;0.67;;;;;;;;5043887;28;45605;-68
2021/12/04 17:23:19;;;;;;;;;0.00;0.00;;;;;;;;5036128;28;45319;-68
2021/12/04 17:25:44;;;;;;;;;2.00;1.00;;;;;;;;5036610;28;45421;-68
2021/12/04 17:28:11;;;;;;;;;0.33;0.00;;;;;;;;5041849;28;45283;-68
2021/12/04 17:30:37;;;;;;;;;2.33;1.00;;;;;;;;5037551;28;46063;-68
2021/12/04 17:33:03;;;;;;;;;0.67;0.00;;;;;;;;5039429;28;45682;-68
2021/12/04 17:35:28;;;;;;;;;1.00;1.00;;;;;;;;5041249;28;45757;-68
2021/12/04 17:37:54;;;;;;;;;1.00;1.00;;;;;;;;5040994;28;45631;-68
2021/12/04 17:40:20;;;;;;;;;1.67;1.33;;;;;;;;5041066;28;45694;-68
2021/12/04 17:42:45;;;;;;;;;1.00;1.00;;;;;;;;5041970;28;45301;-68
2021/12/04 17:45:12;;;;;;;;;2.67;1.33;;;;;;;;5035501;28;45405;-69
2021/12/04 17:47:42;;;;;;;;;3.00;1.00;;;;;;;;5040313;28;45707;-68
2021/12/04 17:50:10;;;;;;;;;1.00;1.00;;;;;;;;5039395;28;45484;-68
2021/12/04 17:52:35;;;;;;;;;1.00;1.00;;;;;;;;5040193;28;45383;-68
2021/12/04 17:55:01;;;;;;;;;5.00;2.00;;;;;;;;5039530;28;45433;-68
2021/12/04 17:57:26;;;;;;;;;5.33;2.00;;;;;;;;5043206;28;45322;-68
2021/12/04 17:59:51;;;;;;;;;2.00;1.67;;;;;;;;5035941;28;47078;-69